createdAt,value
2023-09-30T00:00:10.032Z,14.40
2023-09-30T00:02:39.841Z,14.50
2023-09-30T00:05:07.238Z,14.50
2023-09-30T00:07:34.427Z,14.40
2023-09-30T00:10:01.839Z,14.40
2023-09-30T00:12:28.815Z,14.40
2023-09-30T00:14:56.050Z,14.30
2023-09-30T00:17:23.005Z,14.20
2023-09-30T00:19:50.126Z,14.20
2023-09-30T00:22:16.999Z,14.10
2023-09-30T00:24:43.950Z,14.00
2023-09-30T00:27:10.841Z,13.90
2023-09-30T00:29:37.741Z,13.90
2023-09-30T00:32:05.435Z,13.80
2023-09-30T00:34:38.349Z,13.80
2023-09-30T00:37:05.671Z,13.70
2023-09-30T00:39:34.182Z,13.60
2023-09-30T00:42:01.313Z,13.50
2023-09-30T00:44:28.853Z,13.50
2023-09-30T00:46:57.270Z,13.40
2023-09-30T00:49:25.801Z,13.30
2023-09-30T00:51:53.669Z,13.20
2023-09-30T00:54:22.050Z,13.10
2023-09-30T00:56:51.120Z,13.00
2023-09-30T00:59:19.060Z,12.80
2023-09-30T01:01:46.951Z,12.80
2023-09-30T01:04:15.630Z,12.70
2023-09-30T01:06:42.684Z,12.60
2023-09-30T01:09:10.180Z,12.60
2023-09-30T01:11:37.267Z,12.40
2023-09-30T01:14:04.891Z,12.30
2023-09-30T01:16:32.169Z,12.20
2023-09-30T01:18:59.124Z,12.30
2023-09-30T01:21:28.779Z,12.20
2023-09-30T01:23:55.891Z,12.10
2023-09-30T01:26:23.842Z,12.10
2023-09-30T01:28:50.683Z,12.10
2023-09-30T01:31:17.471Z,12.20
2023-09-30T01:33:45.430Z,12.20
2023-09-30T01:36:12.907Z,12.10
2023-09-30T01:38:40.002Z,12.10
2023-09-30T01:41:06.778Z,12.00
2023-09-30T01:43:37.538Z,11.90
2023-09-30T01:46:06.350Z,11.70
2023-09-30T01:48:34.291Z,11.60
2023-09-30T01:51:01.126Z,11.50
2023-09-30T01:53:27.942Z,11.50
2023-09-30T01:55:54.800Z,11.60
2023-09-30T01:58:21.567Z,11.70
2023-09-30T02:00:49.104Z,11.70
2023-09-30T02:03:16.132Z,11.80
2023-09-30T02:05:44.044Z,12.00
2023-09-30T02:08:11.086Z,12.10
2023-09-30T02:10:37.881Z,12.00
2023-09-30T02:13:07.300Z,12.00
2023-09-30T02:15:35.286Z,11.90
2023-09-30T02:18:02.337Z,11.80
2023-09-30T02:20:31.581Z,11.80
2023-09-30T02:23:00.020Z,11.80
2023-09-30T02:25:26.863Z,11.80
2023-09-30T02:27:53.594Z,11.80
2023-09-30T02:30:20.440Z,11.90
2023-09-30T02:32:47.794Z,12.10
2023-09-30T02:35:16.629Z,12.00
2023-09-30T02:37:44.322Z,12.20
2023-09-30T02:40:11.947Z,12.20
2023-09-30T02:42:39.814Z,12.40
2023-09-30T02:45:09.196Z,12.40
2023-09-30T02:47:36.663Z,12.40
2023-09-30T02:50:05.806Z,12.40
2023-09-30T02:52:32.809Z,12.50
2023-09-30T02:54:59.788Z,12.50
2023-09-30T02:57:28.919Z,12.50
2023-09-30T02:59:57.614Z,12.50
2023-09-30T03:02:25.274Z,12.50
2023-09-30T03:04:53.177Z,12.40
2023-09-30T03:07:21.478Z,12.40
2023-09-30T03:09:48.628Z,12.40
2023-09-30T03:12:15.683Z,12.40
2023-09-30T03:14:43.788Z,12.40
2023-09-30T03:17:13.693Z,12.40
2023-09-30T03:19:40.856Z,12.40
2023-09-30T03:22:12.464Z,12.50
2023-09-30T03:24:41.172Z,12.50
2023-09-30T03:27:09.016Z,12.50
2023-09-30T03:29:39.514Z,12.50
2023-09-30T03:32:06.634Z,12.60
2023-09-30T03:34:37.931Z,12.50
2023-09-30T03:37:08.298Z,12.50
2023-09-30T03:39:35.461Z,12.50
2023-09-30T03:42:04.121Z,12.60
2023-09-30T03:44:30.915Z,12.60
2023-09-30T03:46:58.272Z,12.60
2023-09-30T03:49:25.197Z,12.60
2023-09-30T03:51:54.875Z,12.70
2023-09-30T03:54:22.385Z,12.60
2023-09-30T03:56:49.234Z,12.60
2023-09-30T03:59:17.172Z,12.60
2023-09-30T04:01:45.251Z,12.60
2023-09-30T04:04:12.376Z,12.50
2023-09-30T04:06:39.864Z,12.60
2023-09-30T04:09:13.324Z,12.60
2023-09-30T04:11:40.480Z,12.60
2023-09-30T04:14:08.946Z,12.50
2023-09-30T04:16:36.560Z,12.40
2023-09-30T04:19:04.077Z,12.40
2023-09-30T04:21:34.869Z,12.40
2023-09-30T04:24:01.765Z,12.40
2023-09-30T04:26:28.729Z,12.40
2023-09-30T04:28:55.549Z,12.40
2023-09-30T04:31:24.645Z,12.40
2023-09-30T04:33:54.601Z,12.40
2023-09-30T04:36:22.960Z,12.40
2023-09-30T04:38:49.860Z,12.50
2023-09-30T04:41:17.157Z,12.60
2023-09-30T04:43:44.641Z,12.60
2023-09-30T04:46:14.250Z,12.50
2023-09-30T04:48:41.860Z,12.40
2023-09-30T04:51:10.141Z,12.40
2023-09-30T04:53:38.624Z,12.30
2023-09-30T04:56:05.587Z,12.30
2023-09-30T04:58:32.456Z,12.30
2023-09-30T05:00:59.926Z,12.30
2023-09-30T05:03:26.973Z,12.20
2023-09-30T05:05:56.596Z,12.10
2023-09-30T05:08:25.908Z,12.10
2023-09-30T05:10:56.842Z,12.00
2023-09-30T05:13:26.716Z,12.10
2023-09-30T05:15:54.367Z,12.00
2023-09-30T05:18:21.657Z,12.00
2023-09-30T05:20:48.500Z,12.10
2023-09-30T05:23:15.900Z,12.20
2023-09-30T05:25:44.026Z,12.10
2023-09-30T05:28:12.534Z,12.10
2023-09-30T05:30:40.166Z,12.10
2023-09-30T05:33:07.964Z,12.20
2023-09-30T05:35:34.733Z,12.20
2023-09-30T05:38:01.877Z,12.10
2023-09-30T05:40:31.538Z,12.20
2023-09-30T05:43:00.132Z,12.20
2023-09-30T05:45:28.778Z,12.30
2023-09-30T05:47:58.809Z,12.20
2023-09-30T05:50:27.463Z,12.20
2023-09-30T05:52:56.265Z,12.20
2023-09-30T05:55:24.010Z,12.10
2023-09-30T05:57:51.600Z,12.10
2023-09-30T06:00:37.334Z,12.10
2023-09-30T06:03:07.551Z,12.30
2023-09-30T06:05:35.057Z,12.50
2023-09-30T06:08:04.925Z,12.80
2023-09-30T06:10:32.292Z,13.00
2023-09-30T06:12:59.561Z,13.40
2023-09-30T06:15:29.844Z,13.50
2023-09-30T06:17:58.919Z,13.70
2023-09-30T06:20:28.606Z,13.90
2023-09-30T06:22:56.134Z,14.00
2023-09-30T06:25:25.215Z,14.10
2023-09-30T06:27:52.164Z,14.30
2023-09-30T06:30:21.430Z,14.60
2023-09-30T06:32:49.173Z,14.80
2023-09-30T06:35:16.102Z,14.50
2023-09-30T06:37:43.332Z,14.20
2023-09-30T06:40:13.635Z,13.90
2023-09-30T06:42:43.978Z,13.70
2023-09-30T06:45:11.471Z,13.70
2023-09-30T06:47:40.342Z,13.60
2023-09-30T06:50:13.415Z,13.60
2023-09-30T06:52:42.972Z,13.60
2023-09-30T06:55:10.420Z,13.60
2023-09-30T06:57:38.525Z,13.70
2023-09-30T07:00:10.843Z,13.80
2023-09-30T07:02:38.321Z,14.10
2023-09-30T07:05:13.526Z,14.40
2023-09-30T07:07:46.739Z,14.60
2023-09-30T07:10:14.034Z,14.70
2023-09-30T07:12:41.568Z,14.90
2023-09-30T07:15:09.695Z,15.10
2023-09-30T07:17:37.846Z,15.30
2023-09-30T07:20:07.232Z,15.60
2023-09-30T07:22:46.142Z,15.90
2023-09-30T07:25:19.844Z,16.00
2023-09-30T07:27:47.105Z,16.00
2023-09-30T07:30:16.309Z,16.20
2023-09-30T07:32:43.986Z,16.20
2023-09-30T07:35:11.471Z,16.20
2023-09-30T07:37:38.286Z,16.00
2023-09-30T07:40:06.276Z,16.10
2023-09-30T07:42:34.634Z,16.20
2023-09-30T07:45:02.113Z,16.20
2023-09-30T07:47:28.922Z,16.60
2023-09-30T07:49:56.379Z,16.90
2023-09-30T07:52:23.552Z,16.80
2023-09-30T07:54:50.382Z,16.50
2023-09-30T07:57:17.746Z,16.80
2023-09-30T07:59:44.536Z,16.80
2023-09-30T08:02:11.308Z,17.10
2023-09-30T08:04:38.289Z,17.10
2023-09-30T08:07:05.335Z,17.20
2023-09-30T08:09:32.167Z,17.60
2023-09-30T08:11:59.405Z,18.10
2023-09-30T08:14:26.674Z,18.30
2023-09-30T08:16:53.715Z,18.50
2023-09-30T08:19:21.954Z,18.70
2023-09-30T08:21:50.051Z,19.00
2023-09-30T08:24:17.366Z,18.90
2023-09-30T08:26:44.540Z,18.80
2023-09-30T08:29:11.833Z,18.60
2023-09-30T08:31:38.638Z,18.60
2023-09-30T08:34:05.494Z,18.60
2023-09-30T08:36:32.472Z,19.30
2023-09-30T08:38:59.687Z,19.80
2023-09-30T08:41:33.637Z,19.90
2023-09-30T08:44:05.097Z,19.60
2023-09-30T08:46:33.696Z,19.50
2023-09-30T08:49:05.319Z,19.80
2023-09-30T08:51:33.096Z,20.40
2023-09-30T08:54:01.164Z,20.80
2023-09-30T08:56:35.403Z,20.80
2023-09-30T08:59:04.269Z,19.90
2023-09-30T09:01:32.262Z,20.50
2023-09-30T09:03:59.581Z,20.70
2023-09-30T09:06:27.625Z,20.20
2023-09-30T09:08:54.725Z,20.40
2023-09-30T09:11:22.441Z,20.00
2023-09-30T09:13:57.377Z,20.40
2023-09-30T09:16:25.959Z,19.80
2023-09-30T09:18:53.425Z,20.80
2023-09-30T09:21:27.524Z,20.70
2023-09-30T09:23:55.831Z,20.40
2023-09-30T09:26:28.159Z,20.80
2023-09-30T09:28:59.233Z,20.60
2023-09-30T09:31:28.896Z,20.70
2023-09-30T09:33:56.058Z,20.90
2023-09-30T09:36:39.098Z,20.90
2023-09-30T09:39:06.013Z,20.80
2023-09-30T09:41:32.876Z,21.10
2023-09-30T09:44:00.887Z,21.20
2023-09-30T09:46:30.063Z,20.90
2023-09-30T09:48:58.729Z,21.70
2023-09-30T09:51:26.190Z,22.00
2023-09-30T09:53:56.345Z,22.20
2023-09-30T09:56:23.823Z,22.30
2023-09-30T09:58:51.248Z,23.20
2023-09-30T10:01:18.887Z,22.80
2023-09-30T10:03:46.025Z,23.50
2023-09-30T10:06:13.143Z,23.30
2023-09-30T10:08:43.577Z,23.50
2023-09-30T10:11:18.839Z,24.10
2023-09-30T10:13:58.871Z,23.70
2023-09-30T10:16:37.924Z,22.80
2023-09-30T10:19:23.612Z,23.90
2023-09-30T10:22:19.675Z,24.20
2023-09-30T10:24:50.403Z,25.10
2023-09-30T10:27:23.585Z,24.50
2023-09-30T10:30:00.918Z,24.20
2023-09-30T10:32:52.957Z,24.50
2023-09-30T10:35:39.771Z,25.40
2023-09-30T10:38:31.223Z,25.30
2023-09-30T10:40:58.932Z,25.20
2023-09-30T10:43:31.931Z,26.30
2023-09-30T10:45:59.811Z,25.80
2023-09-30T10:48:26.858Z,25.90
2023-09-30T10:50:56.585Z,25.40
2023-09-30T10:53:24.015Z,24.30
2023-09-30T10:55:59.146Z,23.80
2023-09-30T10:58:40.685Z,23.60
2023-09-30T11:01:07.574Z,23.20
2023-09-30T11:03:34.652Z,22.30
2023-09-30T11:06:12.361Z,22.10
2023-09-30T11:08:47.116Z,21.90
2023-09-30T11:11:15.763Z,21.70
2023-09-30T11:13:42.791Z,21.50
2023-09-30T11:16:09.818Z,21.10
2023-09-30T11:18:39.340Z,21.20
2023-09-30T11:21:11.551Z,21.30
2023-09-30T11:23:39.104Z,21.70
2023-09-30T11:26:06.339Z,21.60
2023-09-30T11:28:44.488Z,21.80
2023-09-30T11:31:14.632Z,22.20
2023-09-30T11:33:54.668Z,22.10
2023-09-30T11:36:22.913Z,21.90
2023-09-30T11:38:52.154Z,21.90
2023-09-30T11:41:23.317Z,21.60
2023-09-30T11:44:23.023Z,22.20
2023-09-30T11:46:53.300Z,22.60
2023-09-30T11:49:39.210Z,21.70
2023-09-30T11:52:10.761Z,21.10
2023-09-30T11:54:40.620Z,21.10
2023-09-30T11:57:10.804Z,20.90
2023-09-30T11:59:38.864Z,21.60
2023-09-30T12:02:14.829Z,22.50
2023-09-30T12:04:43.834Z,22.50
2023-09-30T12:07:10.996Z,22.20
2023-09-30T12:09:38.796Z,21.80
2023-09-30T12:12:09.421Z,21.40
2023-09-30T12:14:36.598Z,20.40
2023-09-30T12:17:04.045Z,20.50
2023-09-30T12:19:30.913Z,20.60
2023-09-30T12:21:57.779Z,20.70
2023-09-30T12:24:25.730Z,20.70
2023-09-30T12:26:53.754Z,21.00
2023-09-30T12:29:23.104Z,21.10
2023-09-30T12:31:54.245Z,21.20
2023-09-30T12:34:25.380Z,21.30
2023-09-30T12:36:52.760Z,21.30
2023-09-30T12:39:25.423Z,21.50
2023-09-30T12:41:53.295Z,21.80
2023-09-30T12:44:20.462Z,21.90
2023-09-30T12:46:47.896Z,22.10
2023-09-30T12:49:15.254Z,22.30
2023-09-30T12:51:42.628Z,22.90
2023-09-30T12:54:10.385Z,23.10
2023-09-30T12:56:37.270Z,23.10
2023-09-30T12:59:04.378Z,22.70
2023-09-30T13:01:35.846Z,22.20
2023-09-30T13:04:03.515Z,22.10
2023-09-30T13:06:32.542Z,22.30
2023-09-30T13:09:00.307Z,22.50
2023-09-30T13:11:27.770Z,22.80
2023-09-30T13:13:54.735Z,23.00
2023-09-30T13:16:21.814Z,22.90
2023-09-30T13:18:49.065Z,23.00
2023-09-30T13:21:15.960Z,23.30
2023-09-30T13:23:43.291Z,22.80
2023-09-30T13:26:10.117Z,22.70
2023-09-30T13:28:36.887Z,22.60
2023-09-30T13:31:03.735Z,22.20
2023-09-30T13:33:30.786Z,22.80
2023-09-30T13:35:57.832Z,22.50
2023-09-30T13:38:25.064Z,22.50
2023-09-30T13:40:51.999Z,22.10
2023-09-30T13:43:18.820Z,21.80
2023-09-30T13:45:45.732Z,21.70
2023-09-30T13:48:12.913Z,22.10
2023-09-30T13:50:39.986Z,22.30
2023-09-30T13:53:06.897Z,22.60
2023-09-30T13:55:33.764Z,22.70
2023-09-30T13:58:00.667Z,22.90
2023-09-30T14:00:27.579Z,22.50
2023-09-30T14:02:54.994Z,22.30
2023-09-30T14:05:21.959Z,22.00
2023-09-30T14:07:49.488Z,22.10
2023-09-30T14:10:16.652Z,22.20
2023-09-30T14:12:44.041Z,21.90
2023-09-30T14:15:11.492Z,21.60
2023-09-30T14:17:38.788Z,21.40
2023-09-30T14:20:07.204Z,21.20
2023-09-30T14:22:34.815Z,21.50
2023-09-30T14:25:02.017Z,21.80
2023-09-30T14:27:29.213Z,21.50
2023-09-30T14:29:56.057Z,21.40
2023-09-30T14:32:24.910Z,21.70
2023-09-30T14:34:52.730Z,21.80
2023-09-30T14:37:19.541Z,22.30
2023-09-30T14:39:46.382Z,22.20
2023-09-30T14:42:13.188Z,22.20
2023-09-30T14:44:40.029Z,21.90
2023-09-30T14:47:06.867Z,21.60
2023-09-30T14:49:33.720Z,21.30
2023-09-30T14:52:01.201Z,20.90
2023-09-30T14:54:35.518Z,20.70
2023-09-30T14:57:02.721Z,20.50
2023-09-30T14:59:30.212Z,20.30
2023-09-30T15:01:57.031Z,20.30
2023-09-30T15:04:24.398Z,20.20
2023-09-30T15:06:51.499Z,20.20
2023-09-30T15:09:19.140Z,20.30
2023-09-30T15:11:45.987Z,20.30
2023-09-30T15:14:12.775Z,20.40
2023-09-30T15:16:40.057Z,20.60
2023-09-30T15:19:06.972Z,20.60
2023-09-30T15:21:34.371Z,20.70
2023-09-30T15:24:03.814Z,21.20
2023-09-30T15:26:32.311Z,21.10
2023-09-30T15:28:59.390Z,21.10
2023-09-30T15:31:33.218Z,21.40
2023-09-30T15:34:00.858Z,21.30
2023-09-30T15:36:28.051Z,21.10
2023-09-30T15:38:54.924Z,21.10
2023-09-30T15:41:25.051Z,20.90
2023-09-30T15:43:52.486Z,20.80
2023-09-30T15:46:20.491Z,20.50
2023-09-30T15:48:47.486Z,20.10
2023-09-30T15:51:14.519Z,19.80
2023-09-30T15:53:41.421Z,19.70
2023-09-30T15:56:08.581Z,19.50
2023-09-30T15:58:35.420Z,19.40
2023-09-30T16:01:02.622Z,19.30
2023-09-30T16:03:29.779Z,19.20
2023-09-30T16:05:56.925Z,19.10
2023-09-30T16:08:23.760Z,19.00
2023-09-30T16:10:50.578Z,18.70
2023-09-30T16:13:17.958Z,18.70
2023-09-30T16:15:46.858Z,18.50
2023-09-30T16:18:13.758Z,18.40
2023-09-30T16:20:40.641Z,18.30
2023-09-30T16:23:07.513Z,18.40
2023-09-30T16:25:36.171Z,18.40
2023-09-30T16:28:03.484Z,18.40
2023-09-30T16:30:30.950Z,18.30
2023-09-30T16:32:58.777Z,18.10
2023-09-30T16:35:25.930Z,17.80
2023-09-30T16:37:52.856Z,17.60
2023-09-30T16:40:19.916Z,17.30
2023-09-30T16:42:46.806Z,17.10
2023-09-30T16:45:13.663Z,16.90
2023-09-30T16:47:40.724Z,16.70
2023-09-30T16:50:07.889Z,16.50
2023-09-30T16:52:34.809Z,16.40
2023-09-30T16:55:01.942Z,16.30
2023-09-30T16:57:28.900Z,16.30
2023-09-30T16:59:56.676Z,16.20
2023-09-30T17:02:24.106Z,16.10
2023-09-30T17:04:52.394Z,16.00
2023-09-30T17:07:19.962Z,15.90
2023-09-30T17:09:46.952Z,15.80
2023-09-30T17:12:14.634Z,15.70
2023-09-30T17:14:41.582Z,15.60
2023-09-30T17:17:08.618Z,15.40
2023-09-30T17:19:35.450Z,15.30
2023-09-30T17:22:02.630Z,15.30
2023-09-30T17:24:32.427Z,15.20
2023-09-30T17:26:59.193Z,15.10
2023-09-30T17:29:25.949Z,15.20
2023-09-30T17:31:52.795Z,15.10
2023-09-30T17:34:19.821Z,15.00
2023-09-30T17:36:46.757Z,14.90
2023-09-30T17:39:14.342Z,14.80
2023-09-30T17:41:41.115Z,14.70
2023-09-30T17:44:08.002Z,14.60
2023-09-30T17:46:35.216Z,14.60
2023-09-30T17:49:02.208Z,14.60
2023-09-30T17:51:31.784Z,14.60
2023-09-30T17:53:59.043Z,14.70
2023-09-30T17:56:28.141Z,14.80
2023-09-30T17:58:55.472Z,14.90
2023-09-30T18:01:23.861Z,15.00
2023-09-30T18:03:51.543Z,15.00
2023-09-30T18:06:19.277Z,15.10
2023-09-30T18:08:47.378Z,15.10
2023-09-30T18:11:15.123Z,15.10
2023-09-30T18:13:42.140Z,15.00
2023-09-30T18:16:09.207Z,14.90
2023-09-30T18:18:38.098Z,14.80
2023-09-30T18:21:05.716Z,14.70
2023-09-30T18:23:33.224Z,14.60
2023-09-30T18:26:01.791Z,14.50
2023-09-30T18:28:30.269Z,14.40
2023-09-30T18:30:57.965Z,14.40
2023-09-30T18:33:25.612Z,14.30
2023-09-30T18:35:53.497Z,14.30
2023-09-30T18:38:21.769Z,14.40
2023-09-30T18:40:49.060Z,14.40
2023-09-30T18:43:16.034Z,14.20
2023-09-30T18:45:47.295Z,14.10
2023-09-30T18:48:15.215Z,14.00
2023-09-30T18:50:47.085Z,13.80
2023-09-30T18:53:14.686Z,13.70
2023-09-30T18:55:44.732Z,13.50
2023-09-30T18:58:11.945Z,13.30
2023-09-30T19:00:43.543Z,13.30
2023-09-30T19:03:11.169Z,13.20
2023-09-30T19:05:39.654Z,13.10
2023-09-30T19:08:08.085Z,13.00
2023-09-30T19:10:35.035Z,12.90
2023-09-30T19:13:02.240Z,12.90
2023-09-30T19:15:29.289Z,12.90
2023-09-30T19:17:58.432Z,12.90
2023-09-30T19:20:25.211Z,12.90
2023-09-30T19:22:52.568Z,12.90
2023-09-30T19:25:20.358Z,12.90
2023-09-30T19:27:47.574Z,12.90
2023-09-30T19:30:14.728Z,12.90
2023-09-30T19:32:41.592Z,12.90
2023-09-30T19:35:09.303Z,12.90
2023-09-30T19:37:37.133Z,12.90
2023-09-30T19:40:04.932Z,12.90
2023-09-30T19:42:32.375Z,12.90
2023-09-30T19:45:00.497Z,12.90
2023-09-30T19:47:28.147Z,13.00
2023-09-30T19:49:55.608Z,13.00
2023-09-30T19:52:29.420Z,13.10
2023-09-30T19:54:56.900Z,13.10
2023-09-30T19:57:24.805Z,13.10
2023-09-30T19:59:51.573Z,13.00
2023-09-30T20:02:19.595Z,12.90
2023-09-30T20:04:46.523Z,12.80
2023-09-30T20:07:13.621Z,12.80
2023-09-30T20:09:42.824Z,12.70
2023-09-30T20:12:11.191Z,12.60
2023-09-30T20:14:38.028Z,12.50
2023-09-30T20:17:05.525Z,12.40
2023-09-30T20:19:32.595Z,12.40
2023-09-30T20:22:01.882Z,12.30
2023-09-30T20:24:28.900Z,12.20
2023-09-30T20:26:56.121Z,12.10
2023-09-30T20:29:23.515Z,12.20
2023-09-30T20:31:50.468Z,12.20
2023-09-30T20:34:17.318Z,12.10
2023-09-30T20:36:45.525Z,12.10
2023-09-30T20:39:14.690Z,12.00
2023-09-30T20:41:41.958Z,11.90
2023-09-30T20:44:08.999Z,11.80
2023-09-30T20:46:36.131Z,11.80
2023-09-30T20:49:05.717Z,11.60
2023-09-30T20:51:32.629Z,11.50
2023-09-30T20:54:00.024Z,11.40
2023-09-30T20:56:27.385Z,11.40
2023-09-30T20:58:55.011Z,11.50
2023-09-30T21:01:22.042Z,11.80
2023-09-30T21:03:49.416Z,11.70
2023-09-30T21:06:16.493Z,11.70
2023-09-30T21:08:43.778Z,11.50
2023-09-30T21:11:10.684Z,11.50
2023-09-30T21:13:37.798Z,11.30
2023-09-30T21:16:04.953Z,11.30
2023-09-30T21:18:33.529Z,11.20
2023-09-30T21:21:01.043Z,11.20
2023-09-30T21:23:28.719Z,11.20
2023-09-30T21:25:55.724Z,11.10
2023-09-30T21:28:23.435Z,11.00
2023-09-30T21:30:50.558Z,10.90
2023-09-30T21:33:17.473Z,10.80
2023-09-30T21:35:44.528Z,10.70
2023-09-30T21:38:11.502Z,10.60
2023-09-30T21:40:38.665Z,10.60
2023-09-30T21:43:05.483Z,10.50
2023-09-30T21:45:32.520Z,10.50
2023-09-30T21:47:59.549Z,10.50
2023-09-30T21:50:26.342Z,10.50
2023-09-30T21:52:53.158Z,10.50
2023-09-30T21:55:20.052Z,10.50
2023-09-30T21:57:46.976Z,10.40
2023-09-30T22:00:27.601Z,10.40
2023-09-30T22:02:54.514Z,10.60
2023-09-30T22:05:21.404Z,10.70
2023-09-30T22:07:48.276Z,10.60
2023-09-30T22:10:16.355Z,10.50
2023-09-30T22:12:44.690Z,10.40
2023-09-30T22:15:11.648Z,10.20
2023-09-30T22:17:39.649Z,10.20
2023-09-30T22:20:07.481Z,10.10
2023-09-30T22:22:35.021Z,10.10
2023-09-30T22:25:01.796Z,10.00
2023-09-30T22:27:28.591Z,10.10
2023-09-30T22:29:55.393Z,10.10
2023-09-30T22:32:22.195Z,10.10
2023-09-30T22:34:48.937Z,10.00
2023-09-30T22:37:15.981Z,10.00
2023-09-30T22:39:43.006Z,10.00
2023-09-30T22:42:11.157Z,10.00
2023-09-30T22:44:37.965Z,10.00
2023-09-30T22:47:04.934Z,9.90
2023-09-30T22:49:31.817Z,9.90
2023-09-30T22:51:58.967Z,9.90
2023-09-30T22:54:25.844Z,9.90
2023-09-30T22:56:54.430Z,9.80
2023-09-30T22:59:23.348Z,9.70
2023-09-30T23:01:50.316Z,9.60
2023-09-30T23:04:17.328Z,9.50
2023-09-30T23:06:45.243Z,9.40
2023-09-30T23:09:12.208Z,9.30
2023-09-30T23:11:39.246Z,9.30
2023-09-30T23:14:06.815Z,9.30
2023-09-30T23:16:35.352Z,9.40
2023-09-30T23:19:06.018Z,9.40
2023-09-30T23:21:33.259Z,9.40
2023-09-30T23:24:00.495Z,9.30
2023-09-30T23:26:27.929Z,9.30
2023-09-30T23:28:55.359Z,9.20
2023-09-30T23:31:24.623Z,9.10
2023-09-30T23:33:52.371Z,9.10
2023-09-30T23:36:19.480Z,9.10
2023-09-30T23:38:46.465Z,9.30
2023-09-30T23:41:14.008Z,9.30
2023-09-30T23:43:41.061Z,9.40
2023-09-30T23:46:11.162Z,9.40
2023-09-30T23:48:39.447Z,9.50
2023-09-30T23:51:10.027Z,9.50
2023-09-30T23:53:37.014Z,9.50
2023-09-30T23:56:06.729Z,9.60
2023-09-30T23:58:33.739Z,9.70
